Terminal Aerodrome Forecast
Issued by NWS

Home | Current Version | Previous Version | Graphics & Text | Print | Product List | Glossary On
Versions: 1 2 3 4 5 6 7 8 9 10 11 12 13 14 15 16 17 18 19 20 21 22 23 24 25 26 27 28 29 30 31 32 33
000
FTUS43 KGRB 300500
TAFRHI
TAF
KRHI 300520Z 3006/3106 35011G17KT P6SM -SN SCT020 BKN035
      TEMPO 3006/3009 3SM -SHSN BKN020
     FM300900 34009KT P6SM -SN SCT020 BKN040
      TEMPO 3009/3012 -SN BKN020
     FM301200 31003KT P6SM SCT016 BKN040
     FM301600 27003KT P6SM SCT040 BKN150
     FM302100 23006KT P6SM BKN080
     FM310400 21005KT P6SM SCT080 BKN200=

USA.gov is the U.S. government's official web portal to all federal, state and local government web resources and services.